sensor_id;sensor_type;location;lat;lon;timestamp;P1;P2;P0
61592;PMS5003;70568;51.378;-1.342;2023-07-02T00:01:22;27;23;
61592;PMS5003;70568;51.378;-1.342;2023-07-02T00:03:49;34;31;
61592;PMS5003;70568;51.378;-1.342;2023-07-02T00:06:15;22;21;
61592;PMS5003;70568;51.378;-1.342;2023-07-02T00:08:42;29;27;
61592;PMS5003;70568;51.378;-1.342;2023-07-02T00:11:09;33;31;
61592;PMS5003;70568;51.378;-1.342;2023-07-02T00:13:36;34;30;
61592;PMS5003;70568;51.378;-1.342;2023-07-02T00:16:04;36;32;
61592;PMS5003;70568;51.378;-1.342;2023-07-02T00:18:31;27;26;
61592;PMS5003;70568;51.378;-1.342;2023-07-02T00:20:58;24;23;
61592;PMS5003;70568;51.378;-1.342;2023-07-02T00:23:25;28;25;
61592;PMS5003;70568;51.378;-1.342;2023-07-02T00:25:52;26;24;
61592;PMS5003;70568;51.378;-1.342;2023-07-02T00:28:18;30;26;
61592;PMS5003;70568;51.378;-1.342;2023-07-02T00:30:45;34;30;
61592;PMS5003;70568;51.378;-1.342;2023-07-02T00:33:12;25;24;
61592;PMS5003;70568;51.378;-1.342;2023-07-02T00:35:39;26;24;
61592;PMS5003;70568;51.378;-1.342;2023-07-02T00:38:05;25;25;
61592;PMS5003;70568;51.378;-1.342;2023-07-02T00:40:32;32;27;
61592;PMS5003;70568;51.378;-1.342;2023-07-02T00:42:59;31;27;
61592;PMS5003;70568;51.378;-1.342;2023-07-02T00:45:25;35;32;
61592;PMS5003;70568;51.378;-1.342;2023-07-02T00:47:53;28;26;
61592;PMS5003;70568;51.378;-1.342;2023-07-02T00:50:20;30;27;
61592;PMS5003;70568;51.378;-1.342;2023-07-02T00:52:49;25;21;
61592;PMS5003;70568;51.378;-1.342;2023-07-02T00:55:16;29;25;
61592;PMS5003;70568;51.378;-1.342;2023-07-02T00:57:42;31;29;
61592;PMS5003;70568;51.378;-1.342;2023-07-02T01:00:10;31;26;
61592;PMS5003;70568;51.378;-1.342;2023-07-02T01:02:37;29;26;
61592;PMS5003;70568;51.378;-1.342;2023-07-02T01:05:05;30;25;
61592;PMS5003;70568;51.378;-1.342;2023-07-02T01:07:32;28;26;
61592;PMS5003;70568;51.378;-1.342;2023-07-02T01:09:59;30;25;
61592;PMS5003;70568;51.378;-1.342;2023-07-02T01:12:25;33;29;
61592;PMS5003;70568;51.378;-1.342;2023-07-02T01:14:53;25;22;
61592;PMS5003;70568;51.378;-1.342;2023-07-02T01:17:25;26;25;
61592;PMS5003;70568;51.378;-1.342;2023-07-02T01:19:55;30;27;
61592;PMS5003;70568;51.378;-1.342;2023-07-02T01:22:24;26;25;
61592;PMS5003;70568;51.378;-1.342;2023-07-02T01:24:52;27;27;
61592;PMS5003;70568;51.378;-1.342;2023-07-02T01:27:20;27;25;
61592;PMS5003;70568;51.378;-1.342;2023-07-02T01:29:50;30;29;
61592;PMS5003;70568;51.378;-1.342;2023-07-02T01:32:18;31;28;
61592;PMS5003;70568;51.378;-1.342;2023-07-02T01:34:45;31;28;
61592;PMS5003;70568;51.378;-1.342;2023-07-02T01:37:12;24;23;
61592;PMS5003;70568;51.378;-1.342;2023-07-02T01:39:39;29;27;
61592;PMS5003;70568;51.378;-1.342;2023-07-02T01:42:07;30;29;
61592;PMS5003;70568;51.378;-1.342;2023-07-02T01:44:35;25;22;
61592;PMS5003;70568;51.378;-1.342;2023-07-02T01:47:03;30;27;
61592;PMS5003;70568;51.378;-1.342;2023-07-02T01:49:30;27;23;
61592;PMS5003;70568;51.378;-1.342;2023-07-02T01:51:57;35;31;
61592;PMS5003;70568;51.378;-1.342;2023-07-02T01:54:26;24;22;
61592;PMS5003;70568;51.378;-1.342;2023-07-02T01:56:53;27;24;
61592;PMS5003;70568;51.378;-1.342;2023-07-02T01:59:20;28;26;
61592;PMS5003;70568;51.378;-1.342;2023-07-02T02:01:47;28;27;
61592;PMS5003;70568;51.378;-1.342;2023-07-02T02:04:14;28;27;
61592;PMS5003;70568;51.378;-1.342;2023-07-02T02:06:41;27;23;
61592;PMS5003;70568;51.378;-1.342;2023-07-02T02:09:08;31;26;
61592;PMS5003;70568;51.378;-1.342;2023-07-02T02:11:36;27;24;
61592;PMS5003;70568;51.378;-1.342;2023-07-02T02:14:04;28;25;
61592;PMS5003;70568;51.378;-1.342;2023-07-02T02:16:31;27;26;
61592;PMS5003;70568;51.378;-1.342;2023-07-02T02:18:58;32;30;
61592;PMS5003;70568;51.378;-1.342;2023-07-02T02:21:25;26;24;
61592;PMS5003;70568;51.378;-1.342;2023-07-02T02:23:52;26;24;
61592;PMS5003;70568;51.378;-1.342;2023-07-02T02:26:18;30;26;
61592;PMS5003;70568;51.378;-1.342;2023-07-02T02:28:45;30;27;
61592;PMS5003;70568;51.378;-1.342;2023-07-02T02:31:12;30;25;
61592;PMS5003;70568;51.378;-1.342;2023-07-02T02:33:39;25;24;
61592;PMS5003;70568;51.378;-1.342;2023-07-02T02:36:06;28;27;
61592;PMS5003;70568;51.378;-1.342;2023-07-02T02:38:32;33;31;
61592;PMS5003;70568;51.378;-1.342;2023-07-02T02:41:00;27;24;
61592;PMS5003;70568;51.378;-1.342;2023-07-02T02:43:26;26;24;
61592;PMS5003;70568;51.378;-1.342;2023-07-02T02:45:53;29;25;
61592;PMS5003;70568;51.378;-1.342;2023-07-02T02:48:20;27;25;
61592;PMS5003;70568;51.378;-1.342;2023-07-02T02:50:47;26;24;
61592;PMS5003;70568;51.378;-1.342;2023-07-02T02:53:13;27;25;
61592;PMS5003;70568;51.378;-1.342;2023-07-02T02:55:40;27;25;
61592;PMS5003;70568;51.378;-1.342;2023-07-02T02:58:07;33;30;
61592;PMS5003;70568;51.378;-1.342;2023-07-02T03:00:33;23;21;
61592;PMS5003;70568;51.378;-1.342;2023-07-02T03:03:00;26;21;
61592;PMS5003;70568;51.378;-1.342;2023-07-02T03:05:27;29;27;
61592;PMS5003;70568;51.378;-1.342;2023-07-02T03:07:53;28;27;
61592;PMS5003;70568;51.378;-1.342;2023-07-02T03:10:21;29;26;
61592;PMS5003;70568;51.378;-1.342;2023-07-02T03:12:48;32;29;
61592;PMS5003;70568;51.378;-1.342;2023-07-02T03:15:14;31;30;
61592;PMS5003;70568;51.378;-1.342;2023-07-02T03:17:41;31;31;
61592;PMS5003;70568;51.378;-1.342;2023-07-02T03:20:08;28;27;
61592;PMS5003;70568;51.378;-1.342;2023-07-02T03:22:35;28;27;
61592;PMS5003;70568;51.378;-1.342;2023-07-02T03:25:03;24;21;
61592;PMS5003;70568;51.378;-1.342;2023-07-02T03:27:30;33;29;
61592;PMS5003;70568;51.378;-1.342;2023-07-02T03:29:56;22;22;
61592;PMS5003;70568;51.378;-1.342;2023-07-02T03:32:23;24;24;
61592;PMS5003;70568;51.378;-1.342;2023-07-02T03:34:50;23;22;
61592;PMS5003;70568;51.378;-1.342;2023-07-02T03:37:17;28;23;
61592;PMS5003;70568;51.378;-1.342;2023-07-02T03:39:44;26;25;
61592;PMS5003;70568;51.378;-1.342;2023-07-02T03:42:11;29;28;
61592;PMS5003;70568;51.378;-1.342;2023-07-02T03:44:38;28;27;
61592;PMS5003;70568;51.378;-1.342;2023-07-02T03:47:05;25;23;
61592;PMS5003;70568;51.378;-1.342;2023-07-02T03:49:32;27;25;
61592;PMS5003;70568;51.378;-1.342;2023-07-02T03:51:59;24;24;
61592;PMS5003;70568;51.378;-1.342;2023-07-02T03:54:25;25;23;
61592;PMS5003;70568;51.378;-1.342;2023-07-02T03:56:52;24;22;
61592;PMS5003;70568;51.378;-1.342;2023-07-02T03:59:19;23;22;
61592;PMS5003;70568;51.378;-1.342;2023-07-02T04:01:45;26;25;
61592;PMS5003;70568;51.378;-1.342;2023-07-02T04:04:12;27;24;
61592;PMS5003;70568;51.378;-1.342;2023-07-02T04:06:39;31;28;
61592;PMS5003;70568;51.378;-1.342;2023-07-02T04:09:06;29;26;
61592;PMS5003;70568;51.378;-1.342;2023-07-02T04:11:33;24;22;
61592;PMS5003;70568;51.378;-1.342;2023-07-02T04:14:00;30;27;
61592;PMS5003;70568;51.378;-1.342;2023-07-02T04:16:27;25;23;
61592;PMS5003;70568;51.378;-1.342;2023-07-02T04:18:53;19;18;
61592;PMS5003;70568;51.378;-1.342;2023-07-02T04:21:20;20;19;
61592;PMS5003;70568;51.378;-1.342;2023-07-02T04:23:47;27;25;
61592;PMS5003;70568;51.378;-1.342;2023-07-02T04:26:13;25;23;
61592;PMS5003;70568;51.378;-1.342;2023-07-02T04:28:40;22;20;
61592;PMS5003;70568;51.378;-1.342;2023-07-02T04:31:07;21;17;
61592;PMS5003;70568;51.378;-1.342;2023-07-02T04:33:34;26;24;
61592;PMS5003;70568;51.378;-1.342;2023-07-02T04:36:02;30;26;
61592;PMS5003;70568;51.378;-1.342;2023-07-02T04:38:29;22;19;
61592;PMS5003;70568;51.378;-1.342;2023-07-02T04:40:56;24;20;
61592;PMS5003;70568;51.378;-1.342;2023-07-02T04:43:23;23;22;
61592;PMS5003;70568;51.378;-1.342;2023-07-02T04:45:49;16;14;
61592;PMS5003;70568;51.378;-1.342;2023-07-02T04:48:16;17;17;
61592;PMS5003;70568;51.378;-1.342;2023-07-02T04:50:43;17;17;
61592;PMS5003;70568;51.378;-1.342;2023-07-02T04:53:10;20;19;
61592;PMS5003;70568;51.378;-1.342;2023-07-02T04:55:38;22;20;
61592;PMS5003;70568;51.378;-1.342;2023-07-02T04:58:05;24;19;
61592;PMS5003;70568;51.378;-1.342;2023-07-02T05:00:31;22;18;
61592;PMS5003;70568;51.378;-1.342;2023-07-02T05:02:58;30;24;
61592;PMS5003;70568;51.378;-1.342;2023-07-02T05:05:25;22;21;
61592;PMS5003;70568;51.378;-1.342;2023-07-02T05:07:51;21;15;
61592;PMS5003;70568;51.378;-1.342;2023-07-02T05:10:19;28;23;
61592;PMS5003;70568;51.378;-1.342;2023-07-02T05:12:46;20;19;
61592;PMS5003;70568;51.378;-1.342;2023-07-02T05:15:12;19;18;
61592;PMS5003;70568;51.378;-1.342;2023-07-02T05:17:39;14;14;
61592;PMS5003;70568;51.378;-1.342;2023-07-02T05:20:06;22;19;
61592;PMS5003;70568;51.378;-1.342;2023-07-02T05:22:35;21;20;
61592;PMS5003;70568;51.378;-1.342;2023-07-02T05:25:02;18;17;
61592;PMS5003;70568;51.378;-1.342;2023-07-02T05:27:29;18;17;
61592;PMS5003;70568;51.378;-1.342;2023-07-02T05:29:56;17;17;
61592;PMS5003;70568;51.378;-1.342;2023-07-02T05:32:23;18;16;
61592;PMS5003;70568;51.378;-1.342;2023-07-02T05:34:50;22;20;
61592;PMS5003;70568;51.378;-1.342;2023-07-02T05:37:16;19;16;
61592;PMS5003;70568;51.378;-1.342;2023-07-02T05:39:43;17;15;
61592;PMS5003;70568;51.378;-1.342;2023-07-02T05:42:09;15;14;
61592;PMS5003;70568;51.378;-1.342;2023-07-02T05:44:37;21;21;
61592;PMS5003;70568;51.378;-1.342;2023-07-02T05:47:04;18;17;
61592;PMS5003;70568;51.378;-1.342;2023-07-02T05:49:31;16;14;
61592;PMS5003;70568;51.378;-1.342;2023-07-02T05:51:58;19;18;
61592;PMS5003;70568;51.378;-1.342;2023-07-02T05:54:25;13;12;
61592;PMS5003;70568;51.378;-1.342;2023-07-02T05:56:51;16;16;
61592;PMS5003;70568;51.378;-1.342;2023-07-02T05:59:18;17;17;
61592;PMS5003;70568;51.378;-1.342;2023-07-02T06:01:45;16;15;
61592;PMS5003;70568;51.378;-1.342;2023-07-02T06:04:12;12;11;
61592;PMS5003;70568;51.378;-1.342;2023-07-02T06:06:38;11;11;
61592;PMS5003;70568;51.378;-1.342;2023-07-02T06:09:06;17;15;
61592;PMS5003;70568;51.378;-1.342;2023-07-02T06:11:32;17;17;
61592;PMS5003;70568;51.378;-1.342;2023-07-02T06:13:59;14;13;
61592;PMS5003;70568;51.378;-1.342;2023-07-02T06:16:25;17;13;
61592;PMS5003;70568;51.378;-1.342;2023-07-02T06:18:52;14;11;
61592;PMS5003;70568;51.378;-1.342;2023-07-02T06:21:19;16;15;
61592;PMS5003;70568;51.378;-1.342;2023-07-02T06:23:46;12;12;
61592;PMS5003;70568;51.378;-1.342;2023-07-02T06:26:13;16;13;
61592;PMS5003;70568;51.378;-1.342;2023-07-02T06:28:40;14;12;
61592;PMS5003;70568;51.378;-1.342;2023-07-02T06:31:06;18;15;
61592;PMS5003;70568;51.378;-1.342;2023-07-02T06:33:33;13;12;
61592;PMS5003;70568;51.378;-1.342;2023-07-02T06:36:00;11;10;
61592;PMS5003;70568;51.378;-1.342;2023-07-02T06:38:27;12;11;
61592;PMS5003;70568;51.378;-1.342;2023-07-02T06:40:54;14;12;
61592;PMS5003;70568;51.378;-1.342;2023-07-02T06:43:20;13;10;
61592;PMS5003;70568;51.378;-1.342;2023-07-02T06:45:47;13;12;
61592;PMS5003;70568;51.378;-1.342;2023-07-02T06:48:14;17;17;
61592;PMS5003;70568;51.378;-1.342;2023-07-02T06:50:42;14;13;
61592;PMS5003;70568;51.378;-1.342;2023-07-02T06:53:10;14;14;
61592;PMS5003;70568;51.378;-1.342;2023-07-02T06:55:37;16;15;
61592;PMS5003;70568;51.378;-1.342;2023-07-02T06:58:05;11;11;
61592;PMS5003;70568;51.378;-1.342;2023-07-02T07:00:32;14;11;
61592;PMS5003;70568;51.378;-1.342;2023-07-02T07:02:59;13;13;
61592;PMS5003;70568;51.378;-1.342;2023-07-02T07:05:26;13;10;
61592;PMS5003;70568;51.378;-1.342;2023-07-02T07:07:52;10;9;
61592;PMS5003;70568;51.378;-1.342;2023-07-02T07:10:19;13;11;
61592;PMS5003;70568;51.378;-1.342;2023-07-02T07:12:46;12;10;
61592;PMS5003;70568;51.378;-1.342;2023-07-02T07:15:12;16;14;
61592;PMS5003;70568;51.378;-1.342;2023-07-02T07:17:39;12;11;
61592;PMS5003;70568;51.378;-1.342;2023-07-02T07:20:06;14;12;
61592;PMS5003;70568;51.378;-1.342;2023-07-02T07:22:34;12;11;
61592;PMS5003;70568;51.378;-1.342;2023-07-02T07:25:01;13;12;
61592;PMS5003;70568;51.378;-1.342;2023-07-02T07:27:27;16;14;
61592;PMS5003;70568;51.378;-1.342;2023-07-02T07:29:54;12;10;
61592;PMS5003;70568;51.378;-1.342;2023-07-02T07:32:21;15;12;
61592;PMS5003;70568;51.378;-1.342;2023-07-02T07:34:48;12;11;
61592;PMS5003;70568;51.378;-1.342;2023-07-02T07:37:15;15;12;
61592;PMS5003;70568;51.378;-1.342;2023-07-02T07:39:41;14;11;
61592;PMS5003;70568;51.378;-1.342;2023-07-02T07:42:08;13;11;
61592;PMS5003;70568;51.378;-1.342;2023-07-02T07:44:35;11;10;
61592;PMS5003;70568;51.378;-1.342;2023-07-02T07:47:03;10;9;
61592;PMS5003;70568;51.378;-1.342;2023-07-02T07:49:30;13;10;
61592;PMS5003;70568;51.378;-1.342;2023-07-02T07:51:56;10;9;
61592;PMS5003;70568;51.378;-1.342;2023-07-02T07:54:23;12;10;
61592;PMS5003;70568;51.378;-1.342;2023-07-02T07:56:49;13;11;
61592;PMS5003;70568;51.378;-1.342;2023-07-02T07:59:16;12;10;
61592;PMS5003;70568;51.378;-1.342;2023-07-02T08:01:43;11;11;
61592;PMS5003;70568;51.378;-1.342;2023-07-02T08:04:10;18;16;
61592;PMS5003;70568;51.378;-1.342;2023-07-02T08:06:37;13;12;
61592;PMS5003;70568;51.378;-1.342;2023-07-02T08:09:04;9;9;
61592;PMS5003;70568;51.378;-1.342;2023-07-02T08:11:31;13;11;
61592;PMS5003;70568;51.378;-1.342;2023-07-02T08:13:57;13;11;
61592;PMS5003;70568;51.378;-1.342;2023-07-02T08:16:24;9;9;
61592;PMS5003;70568;51.378;-1.342;2023-07-02T08:18:50;10;9;
61592;PMS5003;70568;51.378;-1.342;2023-07-02T08:21:17;11;9;
61592;PMS5003;70568;51.378;-1.342;2023-07-02T08:23:43;11;8;
61592;PMS5003;70568;51.378;-1.342;2023-07-02T08:26:10;9;8;
61592;PMS5003;70568;51.378;-1.342;2023-07-02T08:28:38;9;7;
61592;PMS5003;70568;51.378;-1.342;2023-07-02T08:31:05;10;10;
61592;PMS5003;70568;51.378;-1.342;2023-07-02T08:33:31;10;10;
61592;PMS5003;70568;51.378;-1.342;2023-07-02T08:35:58;10;8;
61592;PMS5003;70568;51.378;-1.342;2023-07-02T08:38:24;9;8;
61592;PMS5003;70568;51.378;-1.342;2023-07-02T08:40:51;7;7;
61592;PMS5003;70568;51.378;-1.342;2023-07-02T08:43:18;8;8;
61592;PMS5003;70568;51.378;-1.342;2023-07-02T08:45:45;9;6;
61592;PMS5003;70568;51.378;-1.342;2023-07-02T08:48:12;8;7;
61592;PMS5003;70568;51.378;-1.342;2023-07-02T08:50:39;9;7;
61592;PMS5003;70568;51.378;-1.342;2023-07-02T08:53:05;7;7;
61592;PMS5003;70568;51.378;-1.342;2023-07-02T08:55:32;9;9;
61592;PMS5003;70568;51.378;-1.342;2023-07-02T08:57:59;8;8;
61592;PMS5003;70568;51.378;-1.342;2023-07-02T09:00:26;7;7;
61592;PMS5003;70568;51.378;-1.342;2023-07-02T09:02:53;8;8;
61592;PMS5003;70568;51.378;-1.342;2023-07-02T09:05:20;10;8;
61592;PMS5003;70568;51.378;-1.342;2023-07-02T09:07:47;12;10;
61592;PMS5003;70568;51.378;-1.342;2023-07-02T09:10:25;11;8;
61592;PMS5003;70568;51.378;-1.342;2023-07-02T09:13:02;9;8;
61592;PMS5003;70568;51.378;-1.342;2023-07-02T09:15:34;8;7;
61592;PMS5003;70568;51.378;-1.342;2023-07-02T09:18:02;12;8;
61592;PMS5003;70568;51.378;-1.342;2023-07-02T09:20:32;10;10;
61592;PMS5003;70568;51.378;-1.342;2023-07-02T09:22:59;11;10;
61592;PMS5003;70568;51.378;-1.342;2023-07-02T09:25:33;8;8;
61592;PMS5003;70568;51.378;-1.342;2023-07-02T09:28:13;9;8;
61592;PMS5003;70568;51.378;-1.342;2023-07-02T09:30:48;11;8;
61592;PMS5003;70568;51.378;-1.342;2023-07-02T09:33:16;7;6;
61592;PMS5003;70568;51.378;-1.342;2023-07-02T09:35:43;7;6;
61592;PMS5003;70568;51.378;-1.342;2023-07-02T09:38:10;8;8;
61592;PMS5003;70568;51.378;-1.342;2023-07-02T09:40:42;7;6;
61592;PMS5003;70568;51.378;-1.342;2023-07-02T09:43:12;7;6;
61592;PMS5003;70568;51.378;-1.342;2023-07-02T09:45:40;9;8;
61592;PMS5003;70568;51.378;-1.342;2023-07-02T09:48:10;6;6;
61592;PMS5003;70568;51.378;-1.342;2023-07-02T09:50:40;6;6;
61592;PMS5003;70568;51.378;-1.342;2023-07-02T09:53:08;6;6;
61592;PMS5003;70568;51.378;-1.342;2023-07-02T09:55:35;6;4;
61592;PMS5003;70568;51.378;-1.342;2023-07-02T09:58:03;7;7;
61592;PMS5003;70568;51.378;-1.342;2023-07-02T10:00:30;9;9;
61592;PMS5003;70568;51.378;-1.342;2023-07-02T10:02:57;4;4;
61592;PMS5003;70568;51.378;-1.342;2023-07-02T10:05:25;7;6;
61592;PMS5003;70568;51.378;-1.342;2023-07-02T10:07:53;6;6;
61592;PMS5003;70568;51.378;-1.342;2023-07-02T10:10:25;7;6;
61592;PMS5003;70568;51.378;-1.342;2023-07-02T10:12:53;5;5;
61592;PMS5003;70568;51.378;-1.342;2023-07-02T10:15:24;5;5;
61592;PMS5003;70568;51.378;-1.342;2023-07-02T10:17:54;6;5;
61592;PMS5003;70568;51.378;-1.342;2023-07-02T10:20:30;7;5;
61592;PMS5003;70568;51.378;-1.342;2023-07-02T10:22:59;4;4;
61592;PMS5003;70568;51.378;-1.342;2023-07-02T10:25:26;6;5;
61592;PMS5003;70568;51.378;-1.342;2023-07-02T10:27:53;5;5;
61592;PMS5003;70568;51.378;-1.342;2023-07-02T10:30:30;6;6;
61592;PMS5003;70568;51.378;-1.342;2023-07-02T10:33:06;7;7;
61592;PMS5003;70568;51.378;-1.342;2023-07-02T10:35:34;7;7;
61592;PMS5003;70568;51.378;-1.342;2023-07-02T10:38:01;6;6;
61592;PMS5003;70568;51.378;-1.342;2023-07-02T10:40:28;7;7;
61592;PMS5003;70568;51.378;-1.342;2023-07-02T10:42:55;6;6;
61592;PMS5003;70568;51.378;-1.342;2023-07-02T10:45:30;9;8;
61592;PMS5003;70568;51.378;-1.342;2023-07-02T10:47:57;9;9;
61592;PMS5003;70568;51.378;-1.342;2023-07-02T10:50:26;10;7;
61592;PMS5003;70568;51.378;-1.342;2023-07-02T10:52:53;10;9;
61592;PMS5003;70568;51.378;-1.342;2023-07-02T10:55:21;9;8;
61592;PMS5003;70568;51.378;-1.342;2023-07-02T10:57:49;12;12;
61592;PMS5003;70568;51.378;-1.342;2023-07-02T11:00:17;10;10;
61592;PMS5003;70568;51.378;-1.342;2023-07-02T11:02:44;11;10;
61592;PMS5003;70568;51.378;-1.342;2023-07-02T11:05:10;6;5;
61592;PMS5003;70568;51.378;-1.342;2023-07-02T11:07:38;8;8;
61592;PMS5003;70568;51.378;-1.342;2023-07-02T11:10:05;10;8;
61592;PMS5003;70568;51.378;-1.342;2023-07-02T11:12:33;7;7;
61592;PMS5003;70568;51.378;-1.342;2023-07-02T11:15:09;14;9;
61592;PMS5003;70568;51.378;-1.342;2023-07-02T11:17:37;5;5;
61592;PMS5003;70568;51.378;-1.342;2023-07-02T11:20:06;8;8;
61592;PMS5003;70568;51.378;-1.342;2023-07-02T11:22:34;8;8;
61592;PMS5003;70568;51.378;-1.342;2023-07-02T11:25:09;10;8;
61592;PMS5003;70568;51.378;-1.342;2023-07-02T11:27:38;10;9;
61592;PMS5003;70568;51.378;-1.342;2023-07-02T11:30:06;9;9;
61592;PMS5003;70568;51.378;-1.342;2023-07-02T11:32:35;6;6;
61592;PMS5003;70568;51.378;-1.342;2023-07-02T11:35:12;10;9;
61592;PMS5003;70568;51.378;-1.342;2023-07-02T11:37:39;9;7;
61592;PMS5003;70568;51.378;-1.342;2023-07-02T11:40:06;7;6;
61592;PMS5003;70568;51.378;-1.342;2023-07-02T11:42:33;5;5;
61592;PMS5003;70568;51.378;-1.342;2023-07-02T11:44:59;10;9;
61592;PMS5003;70568;51.378;-1.342;2023-07-02T11:47:26;9;8;
61592;PMS5003;70568;51.378;-1.342;2023-07-02T11:49:53;10;9;
61592;PMS5003;70568;51.378;-1.342;2023-07-02T11:52:20;11;11;
61592;PMS5003;70568;51.378;-1.342;2023-07-02T11:54:48;11;9;
61592;PMS5003;70568;51.378;-1.342;2023-07-02T11:57:15;14;12;
61592;PMS5003;70568;51.378;-1.342;2023-07-02T11:59:41;14;12;
61592;PMS5003;70568;51.378;-1.342;2023-07-02T12:02:09;10;9;
61592;PMS5003;70568;51.378;-1.342;2023-07-02T12:04:35;11;9;
61592;PMS5003;70568;51.378;-1.342;2023-07-02T12:07:03;8;8;
61592;PMS5003;70568;51.378;-1.342;2023-07-02T12:09:30;11;10;
61592;PMS5003;70568;51.378;-1.342;2023-07-02T12:11:56;9;6;
61592;PMS5003;70568;51.378;-1.342;2023-07-02T12:14:23;11;9;
61592;PMS5003;70568;51.378;-1.342;2023-07-02T12:16:49;11;10;
61592;PMS5003;70568;51.378;-1.342;2023-07-02T12:19:16;7;7;
61592;PMS5003;70568;51.378;-1.342;2023-07-02T12:21:43;9;8;
61592;PMS5003;70568;51.378;-1.342;2023-07-02T12:24:10;11;9;
61592;PMS5003;70568;51.378;-1.342;2023-07-02T12:26:39;8;7;
61592;PMS5003;70568;51.378;-1.342;2023-07-02T12:29:05;7;6;
61592;PMS5003;70568;51.378;-1.342;2023-07-02T12:31:32;9;8;
61592;PMS5003;70568;51.378;-1.342;2023-07-02T12:33:58;6;6;
61592;PMS5003;70568;51.378;-1.342;2023-07-02T12:36:25;8;7;
61592;PMS5003;70568;51.378;-1.342;2023-07-02T12:38:52;9;7;
61592;PMS5003;70568;51.378;-1.342;2023-07-02T12:41:18;8;7;
61592;PMS5003;70568;51.378;-1.342;2023-07-02T12:43:44;6;5;
61592;PMS5003;70568;51.378;-1.342;2023-07-02T12:46:11;7;6;
61592;PMS5003;70568;51.378;-1.342;2023-07-02T12:48:38;7;7;
61592;PMS5003;70568;51.378;-1.342;2023-07-02T12:51:05;7;6;
61592;PMS5003;70568;51.378;-1.342;2023-07-02T12:53:31;9;7;
61592;PMS5003;70568;51.378;-1.342;2023-07-02T12:55:58;8;7;
61592;PMS5003;70568;51.378;-1.342;2023-07-02T12:58:24;8;7;
61592;PMS5003;70568;51.378;-1.342;2023-07-02T13:00:51;10;10;
61592;PMS5003;70568;51.378;-1.342;2023-07-02T13:03:17;9;8;
61592;PMS5003;70568;51.378;-1.342;2023-07-02T13:05:44;6;5;
61592;PMS5003;70568;51.378;-1.342;2023-07-02T13:08:10;4;4;
61592;PMS5003;70568;51.378;-1.342;2023-07-02T13:10:37;6;4;
61592;PMS5003;70568;51.378;-1.342;2023-07-02T13:13:05;5;4;
61592;PMS5003;70568;51.378;-1.342;2023-07-02T13:15:31;4;4;
61592;PMS5003;70568;51.378;-1.342;2023-07-02T13:17:58;3;3;
61592;PMS5003;70568;51.378;-1.342;2023-07-02T13:20:25;7;5;
61592;PMS5003;70568;51.378;-1.342;2023-07-02T13:22:52;4;4;
61592;PMS5003;70568;51.378;-1.342;2023-07-02T13:25:19;4;3;
61592;PMS5003;70568;51.378;-1.342;2023-07-02T13:27:46;6;5;
61592;PMS5003;70568;51.378;-1.342;2023-07-02T13:30:12;4;4;
61592;PMS5003;70568;51.378;-1.342;2023-07-02T13:32:38;3;3;
61592;PMS5003;70568;51.378;-1.342;2023-07-02T13:35:05;3;3;
61592;PMS5003;70568;51.378;-1.342;2023-07-02T13:37:32;4;4;
61592;PMS5003;70568;51.378;-1.342;2023-07-02T13:39:59;4;4;
61592;PMS5003;70568;51.378;-1.342;2023-07-02T13:42:25;6;4;
61592;PMS5003;70568;51.378;-1.342;2023-07-02T13:44:52;5;4;
61592;PMS5003;70568;51.378;-1.342;2023-07-02T13:47:18;5;4;
61592;PMS5003;70568;51.378;-1.342;2023-07-02T13:49:44;4;3;
61592;PMS5003;70568;51.378;-1.342;2023-07-02T13:52:11;3;3;
61592;PMS5003;70568;51.378;-1.342;2023-07-02T13:54:38;4;4;
61592;PMS5003;70568;51.378;-1.342;2023-07-02T13:57:05;3;3;
61592;PMS5003;70568;51.378;-1.342;2023-07-02T13:59:32;3;3;
61592;PMS5003;70568;51.378;-1.342;2023-07-02T14:01:58;6;5;
61592;PMS5003;70568;51.378;-1.342;2023-07-02T14:04:25;5;3;
61592;PMS5003;70568;51.378;-1.342;2023-07-02T14:06:52;3;3;
61592;PMS5003;70568;51.378;-1.342;2023-07-02T14:09:18;6;5;
61592;PMS5003;70568;51.378;-1.342;2023-07-02T14:11:46;10;9;
61592;PMS5003;70568;51.378;-1.342;2023-07-02T14:14:12;4;4;
61592;PMS5003;70568;51.378;-1.342;2023-07-02T14:16:39;8;6;
61592;PMS5003;70568;51.378;-1.342;2023-07-02T14:19:05;6;4;
61592;PMS5003;70568;51.378;-1.342;2023-07-02T14:21:32;3;3;
61592;PMS5003;70568;51.378;-1.342;2023-07-02T14:23:58;5;4;
61592;PMS5003;70568;51.378;-1.342;2023-07-02T14:26:25;6;5;
61592;PMS5003;70568;51.378;-1.342;2023-07-02T14:28:51;6;5;
61592;PMS5003;70568;51.378;-1.342;2023-07-02T14:31:19;5;5;
61592;PMS5003;70568;51.378;-1.342;2023-07-02T14:33:45;5;4;
61592;PMS5003;70568;51.378;-1.342;2023-07-02T14:36:12;7;4;
61592;PMS5003;70568;51.378;-1.342;2023-07-02T14:38:39;7;4;
61592;PMS5003;70568;51.378;-1.342;2023-07-02T14:41:06;5;4;
61592;PMS5003;70568;51.378;-1.342;2023-07-02T14:43:33;3;3;
61592;PMS5003;70568;51.378;-1.342;2023-07-02T14:46:00;4;3;
61592;PMS5003;70568;51.378;-1.342;2023-07-02T14:48:29;4;4;
61592;PMS5003;70568;51.378;-1.342;2023-07-02T14:50:57;5;4;
61592;PMS5003;70568;51.378;-1.342;2023-07-02T14:53:25;7;5;
61592;PMS5003;70568;51.378;-1.342;2023-07-02T14:55:54;3;3;
61592;PMS5003;70568;51.378;-1.342;2023-07-02T14:58:22;3;3;
61592;PMS5003;70568;51.378;-1.342;2023-07-02T15:00:50;5;4;
61592;PMS5003;70568;51.378;-1.342;2023-07-02T15:03:19;6;4;
61592;PMS5003;70568;51.378;-1.342;2023-07-02T15:05:47;5;4;
61592;PMS5003;70568;51.378;-1.342;2023-07-02T15:08:14;4;4;
61592;PMS5003;70568;51.378;-1.342;2023-07-02T15:10:42;5;4;
61592;PMS5003;70568;51.378;-1.342;2023-07-02T15:13:12;6;6;
61592;PMS5003;70568;51.378;-1.342;2023-07-02T15:15:38;5;5;
61592;PMS5003;70568;51.378;-1.342;2023-07-02T15:18:06;4;4;
61592;PMS5003;70568;51.378;-1.342;2023-07-02T15:20:33;6;5;
61592;PMS5003;70568;51.378;-1.342;2023-07-02T15:23:00;7;6;
61592;PMS5003;70568;51.378;-1.342;2023-07-02T15:25:27;8;5;
61592;PMS5003;70568;51.378;-1.342;2023-07-02T15:27:56;5;4;
61592;PMS5003;70568;51.378;-1.342;2023-07-02T15:30:24;5;5;
61592;PMS5003;70568;51.378;-1.342;2023-07-02T15:32:51;4;3;
61592;PMS5003;70568;51.378;-1.342;2023-07-02T15:35:17;6;6;
61592;PMS5003;70568;51.378;-1.342;2023-07-02T15:37:44;3;3;
61592;PMS5003;70568;51.378;-1.342;2023-07-02T15:40:11;3;3;
61592;PMS5003;70568;51.378;-1.342;2023-07-02T15:42:38;6;5;
61592;PMS5003;70568;51.378;-1.342;2023-07-02T15:45:06;7;5;
61592;PMS5003;70568;51.378;-1.342;2023-07-02T15:47:33;4;4;
61592;PMS5003;70568;51.378;-1.342;2023-07-02T15:50:00;5;5;
61592;PMS5003;70568;51.378;-1.342;2023-07-02T15:52:26;4;4;
61592;PMS5003;70568;51.378;-1.342;2023-07-02T15:54:54;7;6;
61592;PMS5003;70568;51.378;-1.342;2023-07-02T15:57:20;5;5;
61592;PMS5003;70568;51.378;-1.342;2023-07-02T15:59:47;6;5;
61592;PMS5003;70568;51.378;-1.342;2023-07-02T16:02:14;5;5;
61592;PMS5003;70568;51.378;-1.342;2023-07-02T16:04:41;9;6;
61592;PMS5003;70568;51.378;-1.342;2023-07-02T16:07:07;4;4;
61592;PMS5003;70568;51.378;-1.342;2023-07-02T16:09:34;6;5;
61592;PMS5003;70568;51.378;-1.342;2023-07-02T16:12:01;5;5;
61592;PMS5003;70568;51.378;-1.342;2023-07-02T16:14:27;4;4;
61592;PMS5003;70568;51.378;-1.342;2023-07-02T16:16:53;9;6;